Time;durP1;ratioP1;P1;durP2;ratioP2;P2;SDS_P1;SDS_P2;PMS_P1;PMS_P2;Temp;Humidity;BMP_temperature;BMP_pressure;BME280_temperature;BME280_humidity;BME280_pressure;Samples;Min_cycle;Max_cycle;Signal;HPM_P1;HPM_P2
2023/08/02 00:12:44;;;;;;;17.85;16.63;;;;;;;;;;4634780;30;20072;-95
2023/08/02 00:36:13;;;;;;;18.40;17.08;;;;;;;;;;4914134;24;20151;-96
2023/08/02 00:42:13;;;;;;;15.90;14.63;;;;;;;;;;4778005;24;20167;-96
2023/08/02 01:02:09;;;;;;;16.38;14.90;;;;;;;;;;4839049;24;20190;-93
2023/08/02 01:05:14;;;;;;;15.32;13.80;;;;;;;;;;4759408;30;20028;-96
2023/08/02 01:11:19;;;;;;;12.07;11.25;;;;;;;;;;4753654;30;20039;-95
2023/08/02 01:51:22;;;;;;;12.43;11.27;;;;;;;;;;4844633;24;20435;-96
2023/08/02 02:02:28;;;;;;;;;;;;;;;;;;;;;
2023/08/02 02:20:53;;;;;;;20.02;18.27;;;;;;;;;;5009594;24;20090;-96
2023/08/02 03:16:25;;;;;;;11.70;10.80;;;;;;;;;;4765161;30;20057;-96
2023/08/02 03:44:34;;;;;;;;;;;;;;;;;;;;;
2023/08/02 04:01:44;;;;;;;16.05;13.63;;;;;;;;;;4835925;24;20079;-94
2023/08/02 04:07:11;;;;;;;15.05;13.57;;;;;;;;;;4796192;24;20063;-94
2023/08/02 04:09:59;;;;;;;14.65;13.38;;;;;;;;;;4755253;30;20048;-95
2023/08/02 04:15:11;;;;;;;17.83;16.50;;;;;;;;;;4794634;24;20052;-96
2023/08/02 04:17:49;;;;;;;13.85;12.57;;;;;;;;;;4746222;30;20052;-94
2023/08/02 04:20:40;;;;;;;13.98;12.95;;;;;;;;;;4746288;30;20037;-95
2023/08/02 04:23:08;;;;;;;16.10;14.85;;;;;;;;;;4758066;30;20041;-96
2023/08/02 04:40:51;;;;;;;10.98;10.05;;;;;;;;;;4752698;30;20134;-95
2023/08/02 04:43:26;;;;;;;10.10;9.30;;;;;;;;;;4846039;24;20063;-95
2023/08/02 04:45:52;;;;;;;16.08;14.82;;;;;;;;;;5148571;24;20044;-95
2023/08/02 04:48:24;;;;;;;14.13;13.10;;;;;;;;;;4774659;29;20084;-96
2023/08/02 04:50:59;;;;;;;16.60;15.57;;;;;;;;;;4770084;30;20036;-95
2023/08/02 04:59:37;;;;;;;50.05;46.88;;;;;;;;;;4761929;30;20157;-95
2023/08/02 05:02:15;;;;;;;;;;;;;;;;;;;;;
2023/08/02 05:04:43;;;;;;;48.65;45.83;;;;;;;;;;5121464;24;20134;-96
2023/08/02 05:10:13;;;;;;;60.85;57.17;;;;;;;;;;5511802;24;20631;-95
2023/08/02 05:12:43;;;;;;;47.90;45.25;;;;;;;;;;4747459;30;20044;-95
2023/08/02 05:15:12;;;;;;;55.03;51.92;;;;;;;;;;4746524;30;20057;-94
2023/08/02 05:20:55;;;;;;;100.05;94.57;;;;;;;;;;4769814;30;20030;-96
2023/08/02 05:34:12;;;;;;;162.57;153.57;;;;;;;;;;5279781;24;20275;-95
2023/08/02 05:36:38;;;;;;;145.55;137.73;;;;;;;;;;4738781;30;20047;-95
2023/08/02 05:39:07;;;;;;;180.13;170.25;;;;;;;;;;4738455;30;20127;-93
2023/08/02 05:41:34;;;;;;;149.73;141.65;;;;;;;;;;4739871;30;20067;-96
2023/08/02 05:44:03;;;;;;;160.13;151.35;;;;;;;;;;4739211;30;20036;-95
2023/08/02 05:46:36;;;;;;;161.20;152.65;;;;;;;;;;4733719;30;20064;-95
2023/08/02 05:49:02;;;;;;;166.60;157.82;;;;;;;;;;4823769;24;20801;-95
2023/08/02 05:51:31;;;;;;;184.50;174.45;;;;;;;;;;4757820;30;20035;-91
2023/08/02 05:53:57;;;;;;;143.40;135.48;;;;;;;;;;4747700;30;20048;-96
2023/08/02 06:08:41;;;;;;;;;;;;;;;;;;4735083;30;20051;-96
2023/08/02 06:11:15;;;;;;;17.27;15.95;;;;;;;;;;4720103;30;20362;-96
2023/08/02 06:13:54;;;;;;;15.85;14.95;;;;;;;;;;4725593;30;20053;-93
2023/08/02 06:43:53;;;;;;;6.35;5.95;;;;;;;;;;5297005;24;20076;-96
2023/08/02 07:02:59;;;;;;;6.63;6.13;;;;;;;;;;4786968;29;20101;-95
2023/08/02 07:05:28;;;;;;;4.90;4.60;;;;;;;;;;4765050;30;20036;-94
2023/08/02 07:07:55;;;;;;;6.43;2.35;;;;;;;;;;4756154;30;20400;-95
2023/08/02 07:10:22;;;;;;;4.30;3.90;;;;;;;;;;4756156;30;20081;-95
2023/08/02 07:13:16;;;;;;;;;;;;;;;;;;;;;
2023/08/02 07:16:06;;;;;;;5.85;3.42;;;;;;;;;;4733763;30;20119;-95
2023/08/02 07:18:32;;;;;;;5.78;1.83;;;;;;;;;;4750333;24;20049;-94
2023/08/02 07:21:11;;;;;;;12.07;11.18;;;;;;;;;;4735280;30;20071;-95
2023/08/02 07:23:37;;;;;;;6.38;5.78;;;;;;;;;;4737914;30;20036;-96
2023/08/02 07:26:06;;;;;;;5.63;5.22;;;;;;;;;;4737851;30;20032;-95
2023/08/02 07:28:41;;;;;;;4.55;4.22;;;;;;;;;;4735808;30;20036;-95
2023/08/02 07:31:11;;;;;;;4.22;3.92;;;;;;;;;;4736482;30;20426;-96
2023/08/02 07:33:47;;;;;;;5.75;5.32;;;;;;;;;;4738519;30;20032;-95
2023/08/02 07:36:14;;;;;;;2.90;2.58;;;;;;;;;;4739980;30;20040;-96
2023/08/02 07:38:46;;;;;;;4.97;3.95;;;;;;;;;;4731926;30;20041;-96
2023/08/02 07:47:44;;;;;;;5.40;4.90;;;;;;;;;;4702649;30;20045;-95
2023/08/02 07:50:31;;;;;;;3.88;3.47;;;;;;;;;;4706675;30;20453;-91
2023/08/02 07:53:27;;;;;;;3.60;3.28;;;;;;;;;;4720275;30;20102;-93
2023/08/02 07:56:07;;;;;;;6.88;5.30;;;;;;;;;;4720408;30;20077;-92
2023/08/02 07:58:56;;;;;;;14.85;13.95;;;;;;;;;;4725342;30;20047;-96
2023/08/02 08:01:25;;;;;;;13.88;12.98;;;;;;;;;;4729608;30;20091;-93
2023/08/02 08:03:51;;;;;;;13.73;12.90;;;;;;;;;;4737793;30;20433;-94
2023/08/02 08:06:50;;;;;;;;;;;;;;;;;;;;;
2023/08/02 08:09:23;;;;;;;19.33;18.23;;;;;;;;;;4738237;30;20036;-95
2023/08/02 08:11:53;;;;;;;20.00;18.80;;;;;;;;;;4741692;30;20036;-96
2023/08/02 08:21:07;;;;;;;;;;;;;;;;;;;;;
2023/08/02 08:23:45;;;;;;;;;;;;;;;;;;;;;
2023/08/02 08:26:40;;;;;;;6.25;5.85;;;;;;;;;;4758570;30;20044;-96
2023/08/02 08:40:51;;;;;;;6.75;6.15;;;;;;;;;;4771940;30;20052;-95
2023/08/02 08:43:23;;;;;;;12.43;11.52;;;;;;;;;;4752145;30;20036;-93
2023/08/02 08:45:53;;;;;;;9.15;8.60;;;;;;;;;;4739996;30;20501;-94
2023/08/02 08:48:19;;;;;;;20.23;19.02;;;;;;;;;;4740184;30;20029;-96
2023/08/02 08:50:50;;;;;;;29.80;27.88;;;;;;;;;;4739963;30;20032;-95
2023/08/02 08:53:23;;;;;;;42.97;40.55;;;;;;;;;;4739847;30;20035;-93
2023/08/02 08:55:52;;;;;;;38.03;35.60;;;;;;;;;;4724739;30;20043;-94
2023/08/02 08:58:24;;;;;;;28.15;26.48;;;;;;;;;;4722085;30;20037;-94
2023/08/02 09:00:58;;;;;;;28.85;27.23;;;;;;;;;;4721866;30;20087;-92
2023/08/02 09:03:32;;;;;;;43.15;40.53;;;;;;;;;;4721331;30;20554;-93
2023/08/02 09:06:18;;;;;;;31.45;29.42;;;;;;;;;;4721941;30;20032;-95
2023/08/02 09:09:04;;;;;;;25.70;24.27;;;;;;;;;;4721895;30;20119;-96
2023/08/02 09:11:37;;;;;;;20.02;18.83;;;;;;;;;;4722070;30;20487;-96
2023/08/02 09:14:22;;;;;;;23.38;22.02;;;;;;;;;;4722113;30;20379;-93
2023/08/02 09:17:06;;;;;;;38.38;36.10;;;;;;;;;;4724949;30;20490;-94
2023/08/02 09:19:36;;;;;;;47.50;44.75;;;;;;;;;;4723394;30;20040;-92
2023/08/02 09:22:14;;;;;;;53.65;50.47;;;;;;;;;;4722153;30;20125;-93
2023/08/02 09:24:50;;;;;;;93.47;86.22;;;;;;;;;;4724257;30;20118;-93
2023/08/02 09:33:02;;;;;;;69.93;65.97;;;;;;;;;;4827890;24;20060;-93
2023/08/02 09:35:42;;;;;;;76.60;72.20;;;;;;;;;;4724746;30;20502;-93
2023/08/02 09:38:11;;;;;;;75.25;71.15;;;;;;;;;;4721574;30;20044;-95
2023/08/02 09:40:47;;;;;;;45.13;42.58;;;;;;;;;;4722060;30;20024;-95
2023/08/02 09:46:43;;;;;;;86.47;81.65;;;;;;;;;;4737435;30;20043;-96
2023/08/02 09:49:17;;;;;;;105.90;100.00;;;;;;;;;;4721821;30;20036;-93
2023/08/02 09:51:47;;;;;;;116.65;109.90;;;;;;;;;;4729194;30;20676;-93
2023/08/02 09:54:17;;;;;;;118.03;111.53;;;;;;;;;;4739487;30;20478;-95
2023/08/02 10:07:44;;;;;;;104.88;99.22;;;;;;;;;;4995683;24;20143;-90
2023/08/02 10:10:19;;;;;;;141.48;133.80;;;;;;;;;;4740768;30;20062;-92
2023/08/02 10:13:26;;;;;;;185.57;175.27;;;;;;;;;;4741794;30;20116;-93
2023/08/02 10:16:00;;;;;;;154.75;146.43;;;;;;;;;;4718001;30;20060;-95
2023/08/02 10:21:33;;;;;;;136.05;128.90;;;;;;;;;;4721428;30;20110;-91
2023/08/02 10:24:06;;;;;;;194.60;184.05;;;;;;;;;;4743583;30;20024;-91
2023/08/02 10:26:36;;;;;;;212.57;201.15;;;;;;;;;;4748986;30;20047;-93
2023/08/02 10:29:12;;;;;;;203.48;192.35;;;;;;;;;;4740653;30;20494;-91
2023/08/02 10:31:38;;;;;;;204.18;193.02;;;;;;;;;;4738247;30;20529;-91
2023/08/02 10:46:16;;;;;;;212.25;200.80;;;;;;;;;;4897085;24;20076;-93
2023/08/02 10:48:42;;;;;;;191.60;180.98;;;;;;;;;;4740267;30;20127;-94
2023/08/02 10:51:27;;;;;;;224.23;211.68;;;;;;;;;;4738727;30;20032;-94
2023/08/02 10:54:25;;;;;;;194.95;184.45;;;;;;;;;;4766730;24;20576;-96
2023/08/02 10:57:05;;;;;;;;;;;;;;;;;;;;;
2023/08/02 10:59:53;;;;;;;193.80;183.18;;;;;;;;;;4736665;30;20505;-94
2023/08/02 11:02:29;;;;;;;;;;;;;;;;;;;;;
2023/08/02 11:04:56;;;;;;;196.82;186.18;;;;;;;;;;4736956;30;20044;-93
2023/08/02 11:07:22;;;;;;;164.40;155.52;;;;;;;;;;4736448;30;20087;-94
2023/08/02 11:09:54;;;;;;;161.80;153.13;;;;;;;;;;4739682;30;20059;-93
2023/08/02 11:12:21;;;;;;;195.38;184.82;;;;;;;;;;4739996;30;20562;-96
2023/08/02 11:14:49;;;;;;;188.45;178.10;;;;;;;;;;4739448;30;20040;-94
2023/08/02 11:17:25;;;;;;;206.10;194.95;;;;;;;;;;4739183;30;20495;-96
2023/08/02 11:20:10;;;;;;;191.95;181.63;;;;;;;;;;4737913;30;20063;-95
2023/08/02 11:22:36;;;;;;;213.38;201.30;;;;;;;;;;4726947;30;20063;-95
2023/08/02 11:25:12;;;;;;;236.93;223.75;;;;;;;;;;4739389;30;20115;-96
2023/08/02 11:27:39;;;;;;;192.73;181.90;;;;;;;;;;4740526;30;20047;-95
2023/08/02 11:30:33;;;;;;;198.60;186.60;;;;;;;;;;4759580;30;20028;-93
2023/08/02 11:32:59;;;;;;;186.57;176.15;;;;;;;;;;4752945;30;20055;-93
2023/08/02 11:35:29;;;;;;;179.70;170.20;;;;;;;;;;4759686;30;20043;-93
2023/08/02 11:38:04;;;;;;;212.63;200.63;;;;;;;;;;4738492;30;20060;-96
2023/08/02 11:40:42;;;;;;;222.50;210.10;;;;;;;;;;4730664;30;20084;-93
2023/08/02 11:43:42;;;;;;;289.65;269.70;;;;;;;;;;4720391;30;20037;-96
2023/08/02 11:46:12;;;;;;;266.23;249.90;;;;;;;;;;4739665;30;20376;-94
2023/08/02 11:48:59;;;;;;;298.80;278.25;;;;;;;;;;4738637;30;20496;-96
2023/08/02 11:51:25;;;;;;;270.65;254.85;;;;;;;;;;4720354;30;20033;-96
2023/08/02 11:53:55;;;;;;;243.77;230.35;;;;;;;;;;4720090;30;20148;-95
2023/08/02 11:56:37;;;;;;;220.00;208.05;;;;;;;;;;4719666;30;20407;-96
2023/08/02 11:59:09;;;;;;;218.60;206.77;;;;;;;;;;4736142;30;20075;-96
2023/08/02 12:01:35;;;;;;;244.73;230.75;;;;;;;;;;4737933;30;20029;-94
2023/08/02 12:04:08;;;;;;;210.00;198.60;;;;;;;;;;4737021;30;20041;-95
2023/08/02 12:06:54;;;;;;;276.85;259.63;;;;;;;;;;4737827;30;20123;-96
2023/08/02 12:09:39;;;;;;;230.57;217.35;;;;;;;;;;4737141;30;20039;-95
2023/08/02 12:12:06;;;;;;;282.80;264.88;;;;;;;;;;4737095;30;20037;-95
2023/08/02 12:14:32;;;;;;;249.02;235.45;;;;;;;;;;4737087;30;20059;-93
2023/08/02 12:16:58;;;;;;;264.52;248.68;;;;;;;;;;4723784;30;20446;-95
2023/08/02 12:19:38;;;;;;;248.98;235.20;;;;;;;;;;4721419;30;20119;-92
2023/08/02 12:22:04;;;;;;;222.48;210.18;;;;;;;;;;4752885;30;20048;-94
2023/08/02 12:24:30;;;;;;;297.08;278.20;;;;;;;;;;4735667;30;20568;-96
2023/08/02 12:30:08;;;;;;;294.67;275.88;;;;;;;;;;4720641;30;20458;-93
2023/08/02 12:32:35;;;;;;;276.88;260.10;;;;;;;;;;4720322;30;20036;-93
2023/08/02 12:35:13;;;;;;;281.30;264.75;;;;;;;;;;4719914;30;20041;-95
2023/08/02 12:37:39;;;;;;;281.00;264.20;;;;;;;;;;4719656;30;20049;-94
2023/08/02 12:40:05;;;;;;;325.20;304.23;;;;;;;;;;4719364;30;20040;-95
2023/08/02 12:42:32;;;;;;;312.60;290.55;;;;;;;;;;4719340;30;20136;-94
2023/08/02 12:44:58;;;;;;;273.88;258.48;;;;;;;;;;4719452;30;20108;-96
2023/08/02 12:47:24;;;;;;;270.88;254.32;;;;;;;;;;4719222;30;20041;-95
2023/08/02 12:49:50;;;;;;;277.20;261.27;;;;;;;;;;4718984;30;20040;-96
2023/08/02 12:52:17;;;;;;;362.35;325.00;;;;;;;;;;4719086;30;20394;-96
2023/08/02 12:54:43;;;;;;;437.52;395.05;;;;;;;;;;4718628;30;20121;-93
2023/08/02 12:57:12;;;;;;;417.42;375.58;;;;;;;;;;4721594;30;20106;-95
2023/08/02 12:59:42;;;;;;;275.17;259.77;;;;;;;;;;4737101;30;20524;-92
2023/08/02 13:02:08;;;;;;;332.67;309.83;;;;;;;;;;4736311;30;20498;-96
2023/08/02 13:04:37;;;;;;;259.08;244.40;;;;;;;;;;4736226;30;20476;-92
2023/08/02 13:07:03;;;;;;;279.40;262.92;;;;;;;;;;4736203;30;20036;-94
2023/08/02 13:09:29;;;;;;;258.80;244.30;;;;;;;;;;4735977;30;20037;-96
2023/08/02 13:11:55;;;;;;;276.52;260.08;;;;;;;;;;4736630;30;20059;-96
2023/08/02 13:24:06;;;;;;;;;;;;;;;;;;;;;
2023/08/02 13:26:50;;;;;;;295.45;276.42;;;;;;;;;;4648501;30;20043;-95
2023/08/02 13:29:19;;;;;;;315.60;295.13;;;;;;;;;;4649137;30;20043;-94
2023/08/02 13:31:46;;;;;;;232.32;219.43;;;;;;;;;;4649057;30;20035;-96
2023/08/02 13:34:21;;;;;;;223.63;211.00;;;;;;;;;;4671180;30;20052;-95
2023/08/02 13:36:50;;;;;;;234.25;220.52;;;;;;;;;;4718462;30;20047;-95
2023/08/02 13:39:22;;;;;;;278.05;261.52;;;;;;;;;;4718482;30;20033;-94
2023/08/02 13:41:54;;;;;;;216.77;204.83;;;;;;;;;;4727459;30;20032;-96
2023/08/02 13:44:20;;;;;;;234.73;221.40;;;;;;;;;;4735823;30;20283;-95
2023/08/02 13:50:01;;;;;;;317.17;296.87;;;;;;;;;;4734083;30;20051;-94
2023/08/02 13:52:33;;;;;;;257.60;242.70;;;;;;;;;;4735404;30;20087;-93
2023/08/02 13:55:00;;;;;;;333.50;309.75;;;;;;;;;;4734922;30;20177;-96
2023/08/02 13:57:27;;;;;;;340.05;312.77;;;;;;;;;;4735450;30;20067;-95
2023/08/02 13:59:56;;;;;;;350.90;323.75;;;;;;;;;;4735203;30;20040;-95
2023/08/02 14:10:33;;;;;;;292.40;272.02;;;;;;;;;;4777752;24;20059;-95
2023/08/02 14:12:59;;;;;;;309.65;290.40;;;;;;;;;;4738682;30;20050;-95
2023/08/02 14:15:28;;;;;;;306.40;287.35;;;;;;;;;;4739240;30;20486;-96
2023/08/02 14:17:54;;;;;;;352.52;328.20;;;;;;;;;;4753444;30;20052;-92
2023/08/02 14:20:29;;;;;;;298.75;278.55;;;;;;;;;;4744698;30;20143;-95
2023/08/02 14:22:55;;;;;;;289.05;271.83;;;;;;;;;;4754993;30;20097;-92
2023/08/02 14:25:21;;;;;;;323.80;303.73;;;;;;;;;;4757613;30;20059;-93
2023/08/02 14:27:48;;;;;;;275.02;259.65;;;;;;;;;;4758833;30;20040;-93
2023/08/02 14:30:17;;;;;;;367.08;339.67;;;;;;;;;;4745282;30;20135;-95
2023/08/02 14:32:47;;;;;;;299.10;282.02;;;;;;;;;;4737722;30;20398;-92
2023/08/02 14:35:13;;;;;;;341.63;318.98;;;;;;;;;;4737715;30;20060;-95
2023/08/02 14:37:42;;;;;;;465.75;422.35;;;;;;;;;;4737637;30;20086;-93
2023/08/02 14:40:15;;;;;;;295.92;277.95;;;;;;;;;;4737998;30;20124;-95
2023/08/02 14:42:43;;;;;;;324.58;304.75;;;;;;;;;;4737477;30;20040;-92
2023/08/02 14:45:12;;;;;;;294.50;275.92;;;;;;;;;;4737324;30;20032;-94
2023/08/02 14:47:48;;;;;;;274.85;259.05;;;;;;;;;;4737902;30;20103;-94
2023/08/02 14:50:14;;;;;;;361.10;336.95;;;;;;;;;;4737804;30;20513;-92
2023/08/02 14:52:40;;;;;;;261.40;246.73;;;;;;;;;;4737561;30;20044;-95
2023/08/02 14:55:06;;;;;;;254.57;240.50;;;;;;;;;;4737769;30;20032;-96
2023/08/02 14:57:34;;;;;;;251.40;237.20;;;;;;;;;;4753447;30;20546;-96
2023/08/02 15:00:00;;;;;;;283.92;267.55;;;;;;;;;;4737400;30;20127;-96
2023/08/02 15:05:46;;;;;;;285.20;268.42;;;;;;;;;;4736327;30;20067;-96
2023/08/02 15:08:24;;;;;;;287.38;270.85;;;;;;;;;;4721518;30;20479;-95
2023/08/02 15:10:50;;;;;;;280.17;263.48;;;;;;;;;;4734171;30;20486;-93
2023/08/02 15:13:16;;;;;;;289.02;271.65;;;;;;;;;;4718497;30;20484;-96
2023/08/02 15:15:42;;;;;;;257.33;242.85;;;;;;;;;;4729004;30;20075;-96
2023/08/02 15:18:08;;;;;;;252.00;237.75;;;;;;;;;;4734467;30;20423;-95
2023/08/02 15:20:35;;;;;;;306.90;284.85;;;;;;;;;;4734863;30;20090;-95
2023/08/02 15:23:01;;;;;;;269.70;254.27;;;;;;;;;;4734528;30;20043;-95
2023/08/02 15:25:31;;;;;;;247.07;233.27;;;;;;;;;;4734751;30;20045;-96
2023/08/02 15:28:00;;;;;;;246.57;232.95;;;;;;;;;;4734616;30;20075;-94
2023/08/02 15:30:26;;;;;;;319.67;297.48;;;;;;;;;;4734336;30;20028;-94
2023/08/02 15:32:52;;;;;;;340.33;315.20;;;;;;;;;;4734703;30;20036;-95
2023/08/02 15:35:19;;;;;;;298.27;280.15;;;;;;;;;;4734624;30;20040;-93
2023/08/02 15:38:05;;;;;;;279.33;263.65;;;;;;;;;;4734556;30;20049;-96
2023/08/02 15:40:34;;;;;;;279.02;262.55;;;;;;;;;;4735202;30;20082;-95
2023/08/02 15:43:04;;;;;;;274.17;258.05;;;;;;;;;;4735041;30;20028;-96
2023/08/02 15:45:33;;;;;;;296.05;278.52;;;;;;;;;;4734795;30;20032;-93
2023/08/02 15:47:59;;;;;;;241.77;227.80;;;;;;;;;;4734176;30;20131;-94
2023/08/02 15:50:47;;;;;;;234.75;221.57;;;;;;;;;;4734577;30;20037;-96
2023/08/02 15:56:19;;;;;;;;;;;;;;;;;;4737251;30;20453;-96
2023/08/02 15:59:15;;;;;;;280.67;264.75;;;;;;;;;;4738111;30;19975;-93
2023/08/02 16:01:43;;;;;;;342.35;318.75;;;;;;;;;;4737594;30;20098;-96
2023/08/02 16:04:12;;;;;;;294.15;276.63;;;;;;;;;;4737545;30;20037;-94
2023/08/02 16:06:39;;;;;;;294.77;277.50;;;;;;;;;;4737253;30;20098;-94
2023/08/02 16:09:14;;;;;;;280.73;264.88;;;;;;;;;;4737101;30;20090;-94
2023/08/02 16:11:40;;;;;;;318.85;298.63;;;;;;;;;;4743611;30;20040;-93
2023/08/02 16:14:07;;;;;;;292.38;275.63;;;;;;;;;;4743943;30;20043;-95
2023/08/02 16:16:36;;;;;;;330.85;309.50;;;;;;;;;;4740074;30;20060;-93
2023/08/02 16:19:06;;;;;;;284.48;268.13;;;;;;;;;;4738512;30;20043;-96
2023/08/02 16:21:32;;;;;;;299.20;282.13;;;;;;;;;;4736998;30;20032;-94
2023/08/02 16:24:01;;;;;;;313.52;294.63;;;;;;;;;;4737035;30;20063;-93
2023/08/02 16:26:42;;;;;;;306.42;288.63;;;;;;;;;;4737604;30;20037;-96
2023/08/02 16:29:13;;;;;;;331.05;309.33;;;;;;;;;;4784151;24;20057;-94
2023/08/02 16:31:42;;;;;;;360.10;334.90;;;;;;;;;;4737060;30;20036;-96
2023/08/02 16:34:08;;;;;;;282.45;266.48;;;;;;;;;;4737032;30;20029;-95
2023/08/02 16:36:34;;;;;;;293.02;276.27;;;;;;;;;;4736833;30;20041;-96
2023/08/02 16:39:00;;;;;;;427.40;386.27;;;;;;;;;;4736995;30;20028;-93
2023/08/02 16:41:34;;;;;;;288.60;271.73;;;;;;;;;;4736761;30;20033;-96
2023/08/02 16:44:00;;;;;;;373.05;344.73;;;;;;;;;;4737074;30;20395;-94
2023/08/02 16:52:42;;;;;;;294.02;277.23;;;;;;;;;;4727799;30;20119;-94
2023/08/02 16:55:14;;;;;;;364.25;335.65;;;;;;;;;;4722732;30;20071;-93
2023/08/02 16:57:49;;;;;;;291.83;275.15;;;;;;;;;;4735757;30;20059;-93
2023/08/02 17:09:37;;;;;;;285.60;269.00;;;;;;;;;;4704632;30;20087;-95
2023/08/02 17:15:26;;;;;;;;;;;;;;;;;;;;;
2023/08/02 17:17:55;;;;;;;317.95;299.45;;;;;;;;;;4772762;30;20067;-92
2023/08/02 17:20:31;;;;;;;;;;;;;;;;;;;;;
2023/08/02 17:38:06;;;;;;;341.02;317.42;;;;;;;;;;5215243;24;20437;-94
2023/08/02 17:40:32;;;;;;;317.80;299.65;;;;;;;;;;4741322;30;20393;-94
2023/08/02 17:43:06;;;;;;;311.02;293.13;;;;;;;;;;4818114;24;21029;-94
2023/08/02 17:45:36;;;;;;;314.95;296.60;;;;;;;;;;4739551;30;20032;-95
2023/08/02 17:48:06;;;;;;;358.58;332.02;;;;;;;;;;4739622;30;20036;-93
2023/08/02 17:50:53;;;;;;;303.92;286.52;;;;;;;;;;4738796;30;20032;-94
2023/08/02 17:53:40;;;;;;;307.40;289.63;;;;;;;;;;4738462;30;20048;-96
2023/08/02 17:56:11;;;;;;;302.10;284.70;;;;;;;;;;4753866;30;20135;-94
2023/08/02 17:58:49;;;;;;;334.50;313.45;;;;;;;;;;4738554;30;20041;-95
2023/08/02 18:01:25;;;;;;;300.05;282.95;;;;;;;;;;4734628;30;20402;-95
2023/08/02 18:04:33;;;;;;;310.98;293.25;;;;;;;;;;4734375;30;20090;-93
2023/08/02 18:07:18;;;;;;;;;;;;;;;;;;;;;
2023/08/02 18:09:57;;;;;;;301.08;283.67;;;;;;;;;;4735969;30;20039;-95
2023/08/02 18:15:00;;;;;;;300.73;283.70;;;;;;;;;;4780310;24;20149;-94
2023/08/02 18:17:26;;;;;;;292.85;276.13;;;;;;;;;;4741064;30;20047;-94
2023/08/02 18:19:55;;;;;;;283.90;267.35;;;;;;;;;;4738342;30;20036;-93
2023/08/02 18:22:21;;;;;;;270.83;254.82;;;;;;;;;;4738353;30;20146;-89
2023/08/02 18:24:48;;;;;;;280.00;264.23;;;;;;;;;;4738628;30;20043;-89
2023/08/02 18:27:19;;;;;;;300.67;282.75;;;;;;;;;;4738184;30;20039;-91
2023/08/02 18:29:45;;;;;;;288.63;272.15;;;;;;;;;;4738049;30;20063;-91
2023/08/02 18:32:12;;;;;;;306.70;289.25;;;;;;;;;;4738604;30;20032;-90
2023/08/02 18:34:38;;;;;;;286.95;270.45;;;;;;;;;;4738251;30;20032;-91
2023/08/02 18:37:07;;;;;;;298.30;281.15;;;;;;;;;;4735874;30;20036;-90
2023/08/02 18:39:52;;;;;;;247.98;233.65;;;;;;;;;;4709759;30;20053;-91
2023/08/02 18:42:21;;;;;;;312.50;294.23;;;;;;;;;;4736339;30;20126;-93
2023/08/02 18:44:48;;;;;;;217.50;205.10;;;;;;;;;;4738675;30;20059;-89
2023/08/02 18:47:14;;;;;;;251.13;235.20;;;;;;;;;;4737451;30;20044;-91
2023/08/02 18:49:40;;;;;;;257.65;242.00;;;;;;;;;;4738115;30;20127;-89
2023/08/02 18:52:07;;;;;;;281.63;265.38;;;;;;;;;;4738165;30;20049;-92
2023/08/02 18:54:39;;;;;;;280.90;264.33;;;;;;;;;;4733558;30;20423;-89
2023/08/02 18:57:05;;;;;;;287.70;271.30;;;;;;;;;;4737871;30;20083;-88
2023/08/02 18:59:34;;;;;;;198.35;187.07;;;;;;;;;;4737792;30;20032;-90
2023/08/02 19:02:01;;;;;;;264.35;249.15;;;;;;;;;;4737995;30;20036;-92
2023/08/02 19:04:27;;;;;;;185.00;174.88;;;;;;;;;;4738709;30;20043;-90
2023/08/02 19:06:58;;;;;;;242.38;227.95;;;;;;;;;;4738554;30;20040;-90
2023/08/02 19:09:27;;;;;;;164.98;156.07;;;;;;;;;;4737787;30;20036;-90
2023/08/02 19:11:54;;;;;;;291.23;274.35;;;;;;;;;;4737761;30;20070;-89
2023/08/02 19:14:21;;;;;;;188.70;178.45;;;;;;;;;;4727920;30;20061;-93
2023/08/02 19:17:14;;;;;;;177.07;167.30;;;;;;;;;;4734944;30;20045;-92
2023/08/02 19:19:49;;;;;;;196.02;184.80;;;;;;;;;;4730427;30;20045;-91
2023/08/02 19:22:19;;;;;;;173.27;163.30;;;;;;;;;;4734910;30;20129;-93
2023/08/02 19:30:54;;;;;;;120.05;113.28;;;;;;;;;;4720523;30;20119;-93
2023/08/02 19:33:27;;;;;;;112.60;106.15;;;;;;;;;;4747604;30;20056;-92
2023/08/02 19:35:59;;;;;;;;;;;;;;;;;;4723075;30;20495;-94
2023/08/02 19:38:26;;;;;;;105.40;99.78;;;;;;;;;;4720790;30;19941;-94
2023/08/02 19:40:58;;;;;;;135.50;128.13;;;;;;;;;;4720555;30;20052;-94
2023/08/02 19:43:37;;;;;;;122.95;116.40;;;;;;;;;;4720956;30;20124;-93
2023/08/02 19:46:09;;;;;;;143.40;135.57;;;;;;;;;;4732273;30;20028;-93
2023/08/02 19:52:11;;;;;;;110.32;104.05;;;;;;;;;;4742488;30;20552;-95
2023/08/02 19:54:40;;;;;;;91.85;86.78;;;;;;;;;;4740102;30;20163;-94
2023/08/02 20:00:38;;;;;;;89.53;84.63;;;;;;;;;;4742636;30;20079;-92
2023/08/02 20:06:22;;;;;;;75.03;71.03;;;;;;;;;;4741180;30;20098;-92
2023/08/02 20:09:03;;;;;;;89.38;84.30;;;;;;;;;;4747375;30;20036;-91
2023/08/02 20:11:38;;;;;;;67.93;64.18;;;;;;;;;;4738112;30;20033;-92
2023/08/02 20:14:15;;;;;;;72.70;68.68;;;;;;;;;;4761677;30;20121;-92
2023/08/02 20:16:44;;;;;;;73.15;69.03;;;;;;;;;;4753060;30;20052;-92
2023/08/02 20:19:13;;;;;;;73.97;69.90;;;;;;;;;;4748149;30;20052;-92
2023/08/02 20:25:18;;;;;;;51.35;48.55;;;;;;;;;;4737042;30;20110;-92
2023/08/02 20:27:50;;;;;;;55.35;52.25;;;;;;;;;;4739006;30;20036;-96
2023/08/02 20:30:22;;;;;;;49.75;46.97;;;;;;;;;;4737724;30;20526;-91
2023/08/02 20:32:53;;;;;;;35.80;33.80;;;;;;;;;;4733586;30;20056;-91
2023/08/02 20:35:23;;;;;;;53.63;50.42;;;;;;;;;;4734415;30;20045;-95
2023/08/02 20:37:55;;;;;;;40.38;38.05;;;;;;;;;;4723866;30;20139;-95
2023/08/02 20:40:35;;;;;;;34.67;32.63;;;;;;;;;;4724295;30;20087;-92
2023/08/02 20:43:14;;;;;;;42.13;39.78;;;;;;;;;;4718466;30;20041;-92
2023/08/02 20:45:49;;;;;;;36.88;34.65;;;;;;;;;;4718812;30;20029;-91
2023/08/02 20:48:24;;;;;;;28.13;26.50;;;;;;;;;;4708710;30;20110;-93
2023/08/02 20:50:53;;;;;;;29.27;27.52;;;;;;;;;;4704344;30;20041;-91
2023/08/02 20:53:25;;;;;;;24.67;23.05;;;;;;;;;;4715573;30;20037;-92
2023/08/02 20:56:00;;;;;;;17.83;16.73;;;;;;;;;;4730716;30;20109;-94
2023/08/02 20:58:28;;;;;;;23.48;22.00;;;;;;;;;;4723147;30;20078;-92
2023/08/02 21:00:55;;;;;;;21.90;20.55;;;;;;;;;;4704491;30;20033;-92
2023/08/02 21:03:24;;;;;;;20.25;18.42;;;;;;;;;;4703822;30;20044;-92
2023/08/02 21:05:53;;;;;;;19.90;18.60;;;;;;;;;;4709142;30;20032;-94
2023/08/02 21:08:19;;;;;;;20.52;19.20;;;;;;;;;;4735780;30;20094;-94
2023/08/02 21:10:45;;;;;;;22.38;20.88;;;;;;;;;;4737025;30;20033;-94
2023/08/02 21:13:14;;;;;;;22.08;20.75;;;;;;;;;;4736274;30;20056;-93
2023/08/02 21:15:45;;;;;;;18.90;17.48;;;;;;;;;;4736169;30;20047;-92
2023/08/02 21:18:18;;;;;;;20.55;19.30;;;;;;;;;;4737700;30;20040;-93
2023/08/02 21:20:51;;;;;;;18.20;17.13;;;;;;;;;;4737579;30;20036;-92
2023/08/02 21:23:24;;;;;;;20.48;19.10;;;;;;;;;;4737670;30;20040;-94
2023/08/02 21:26:00;;;;;;;13.80;13.00;;;;;;;;;;4736606;30;20033;-92
2023/08/02 21:28:41;;;;;;;19.95;18.70;;;;;;;;;;4737183;30;20037;-93
2023/08/02 21:31:19;;;;;;;14.02;12.98;;;;;;;;;;4736719;30;20032;-93
2023/08/02 21:33:56;;;;;;;20.05;18.60;;;;;;;;;;4738721;30;20032;-93
2023/08/02 21:39:36;;;;;;;14.90;13.85;;;;;;;;;;4956804;24;20059;-90
2023/08/02 21:42:07;;;;;;;13.68;12.55;;;;;;;;;;4739297;30;20410;-92
2023/08/02 21:44:36;;;;;;;13.85;12.95;;;;;;;;;;4740194;30;20036;-93
2023/08/02 21:47:14;;;;;;;14.90;13.77;;;;;;;;;;4738400;30;20551;-90
2023/08/02 21:49:40;;;;;;;16.45;15.43;;;;;;;;;;4739137;30;20036;-92
2023/08/02 21:52:12;;;;;;;13.43;12.43;;;;;;;;;;4739194;30;20487;-92
2023/08/02 21:54:39;;;;;;;11.80;10.77;;;;;;;;;;4737854;30;20033;-92
2023/08/02 21:57:10;;;;;;;15.55;14.55;;;;;;;;;;4738805;30;20033;-92
2023/08/02 21:59:45;;;;;;;13.15;12.07;;;;;;;;;;4740599;30;20048;-92
2023/08/02 22:02:15;;;;;;;12.50;11.52;;;;;;;;;;4740211;30;20044;-93
2023/08/02 22:05:02;;;;;;;12.88;11.88;;;;;;;;;;4741532;30;20036;-92
2023/08/02 22:07:35;;;;;;;14.32;13.20;;;;;;;;;;4737895;30;20032;-93
2023/08/02 22:10:15;;;;;;;11.43;10.60;;;;;;;;;;4755571;30;20028;-92
2023/08/02 22:12:49;;;;;;;13.65;12.40;;;;;;;;;;4722414;30;20048;-93
2023/08/02 22:15:19;;;;;;;15.10;14.15;;;;;;;;;;4720922;30;20501;-92
2023/08/02 22:17:52;;;;;;;13.57;12.65;;;;;;;;;;4722011;30;20040;-93
2023/08/02 22:23:01;;;;;;;12.82;11.82;;;;;;;;;;5126749;24;19933;-92
2023/08/02 22:25:39;;;;;;;12.20;11.38;;;;;;;;;;4738649;30;20032;-93
2023/08/02 22:28:09;;;;;;;12.05;11.15;;;;;;;;;;4738442;30;20042;-94
2023/08/02 22:30:35;;;;;;;11.45;10.63;;;;;;;;;;4738470;30;20047;-94
2023/08/02 22:33:07;;;;;;;10.60;9.80;;;;;;;;;;4739168;30;20589;-94